Time;durP1;ratioP1;P1;durP2;ratioP2;P2;SDS_P1;SDS_P2;PMS_P1;PMS_P2;Temp;Humidity;BMP_temperature;BMP_pressure;BME280_temperature;BME280_humidity;BME280_pressure;Samples;Min_cycle;Max_cycle;Signal;HPM_P1;HPM_P2
2021/06/06 00:00:18;;;;;;;31.65;17.95;;;;;;;;;;5007493;28;20077;-61
2021/06/06 00:03:06;;;;;;;29.23;17.35;;;;;;;;;;4994773;28;20054;-61
2021/06/06 00:05:38;;;;;;;31.98;17.23;;;;;;;;;;5010972;28;20073;-61
2021/06/06 00:08:04;;;;;;;29.08;17.25;;;;;;;;;;5012393;28;20455;-61
2021/06/06 00:10:31;;;;;;;33.38;16.58;;;;;;;;;;5007464;28;20124;-60
2021/06/06 00:12:57;;;;;;;31.95;18.00;;;;;;;;;;5006923;28;20066;-60
2021/06/06 00:15:24;;;;;;;32.08;17.67;;;;;;;;;;4998541;28;20046;-60
2021/06/06 00:17:50;;;;;;;32.80;18.10;;;;;;;;;;5009469;28;20046;-61
2021/06/06 00:20:17;;;;;;;31.52;18.35;;;;;;;;;;5012475;28;20124;-61
2021/06/06 00:22:43;;;;;;;37.10;18.95;;;;;;;;;;5008442;28;20050;-61
2021/06/06 00:25:11;;;;;;;29.50;17.92;;;;;;;;;;5006801;28;20063;-61
2021/06/06 00:27:37;;;;;;;29.08;18.35;;;;;;;;;;5000364;28;20042;-61
2021/06/06 00:30:08;;;;;;;30.08;17.17;;;;;;;;;;5008652;28;20042;-60
2021/06/06 00:32:35;;;;;;;32.35;18.13;;;;;;;;;;5010938;28;20050;-61
2021/06/06 00:35:02;;;;;;;31.40;17.65;;;;;;;;;;5015910;28;20519;-61
2021/06/06 00:37:28;;;;;;;31.38;17.98;;;;;;;;;;5009201;28;20050;-61
2021/06/06 00:39:55;;;;;;;27.77;17.33;;;;;;;;;;5010365;28;20048;-60
2021/06/06 00:42:23;;;;;;;32.45;17.30;;;;;;;;;;5011274;28;20056;-59
2021/06/06 00:44:54;;;;;;;29.50;16.88;;;;;;;;;;5010485;28;20092;-61
2021/06/06 00:47:20;;;;;;;32.55;16.90;;;;;;;;;;5013551;28;20485;-61
2021/06/06 00:49:47;;;;;;;37.35;19.15;;;;;;;;;;5011123;28;20073;-61
2021/06/06 00:52:15;;;;;;;29.63;16.80;;;;;;;;;;5010665;28;20048;-61
2021/06/06 00:54:45;;;;;;;29.00;16.90;;;;;;;;;;5010564;28;20095;-61
2021/06/06 00:57:20;;;;;;;29.67;16.30;;;;;;;;;;5010872;28;20089;-61
2021/06/06 01:00:01;;;;;;;29.23;16.92;;;;;;;;;;5009558;28;20038;-61
2021/06/06 01:02:29;;;;;;;25.55;16.58;;;;;;;;;;5018868;28;20042;-61
2021/06/06 01:04:55;;;;;;;28.77;17.02;;;;;;;;;;5013963;28;20038;-61
2021/06/06 01:07:22;;;;;;;29.60;17.25;;;;;;;;;;5002895;28;20068;-61
2021/06/06 01:09:48;;;;;;;32.22;17.25;;;;;;;;;;5012576;28;20062;-61
2021/06/06 01:12:15;;;;;;;32.20;17.35;;;;;;;;;;5013233;28;20496;-61
2021/06/06 01:14:56;;;;;;;33.35;18.23;;;;;;;;;;5011005;28;20401;-61
2021/06/06 01:17:34;;;;;;;28.05;16.98;;;;;;;;;;5010131;28;20097;-61
2021/06/06 01:20:12;;;;;;;28.67;16.30;;;;;;;;;;5012883;28;20058;-61
2021/06/06 01:22:48;;;;;;;31.48;17.45;;;;;;;;;;5010087;28;20077;-60
2021/06/06 01:25:21;;;;;;;28.60;15.95;;;;;;;;;;5011490;28;20614;-61
2021/06/06 01:27:52;;;;;;;29.98;16.73;;;;;;;;;;5011925;28;20412;-61
2021/06/06 01:30:23;;;;;;;34.17;17.83;;;;;;;;;;5012520;28;20041;-61
2021/06/06 01:32:54;;;;;;;25.98;15.70;;;;;;;;;;5009172;28;20073;-61
2021/06/06 01:35:20;;;;;;;27.42;16.92;;;;;;;;;;5013354;28;20148;-61
2021/06/06 01:37:48;;;;;;;27.25;17.13;;;;;;;;;;5012544;28;20495;-61
2021/06/06 01:40:19;;;;;;;32.33;15.85;;;;;;;;;;5009047;28;20435;-61
2021/06/06 01:42:58;;;;;;;28.42;16.20;;;;;;;;;;5015825;28;20042;-61
2021/06/06 01:45:28;;;;;;;26.55;14.35;;;;;;;;;;5012664;28;20503;-61
2021/06/06 01:47:57;;;;;;;27.13;15.73;;;;;;;;;;5010805;28;20049;-61
2021/06/06 01:50:30;;;;;;;28.45;15.60;;;;;;;;;;5012968;28;20078;-61
2021/06/06 01:52:59;;;;;;;27.90;16.73;;;;;;;;;;5012799;28;20500;-61
2021/06/06 01:55:29;;;;;;;30.33;16.60;;;;;;;;;;5008210;28;20412;-61
2021/06/06 01:57:56;;;;;;;25.58;15.98;;;;;;;;;;5010777;28;20132;-61
2021/06/06 02:00:38;;;;;;;24.13;15.60;;;;;;;;;;5008257;28;20077;-61
2021/06/06 02:03:24;;;;;;;23.98;14.13;;;;;;;;;;5010801;28;20129;-61
2021/06/06 02:05:54;;;;;;;26.35;16.25;;;;;;;;;;4996131;28;20077;-61
2021/06/06 02:08:21;;;;;;;33.70;17.67;;;;;;;;;;5025746;28;20054;-61
2021/06/06 02:10:53;;;;;;;27.15;16.10;;;;;;;;;;5008380;28;20053;-61
2021/06/06 02:13:23;;;;;;;26.95;15.48;;;;;;;;;;5012492;28;20500;-61
2021/06/06 02:15:52;;;;;;;26.92;15.52;;;;;;;;;;5011247;28;20077;-61
2021/06/06 02:18:25;;;;;;;36.85;16.45;;;;;;;;;;5010075;28;20393;-61
2021/06/06 02:20:53;;;;;;;25.35;15.90;;;;;;;;;;4995221;28;20038;-61
2021/06/06 02:23:27;;;;;;;25.65;16.08;;;;;;;;;;5009047;28;20050;-61
2021/06/06 02:25:59;;;;;;;29.10;15.98;;;;;;;;;;5007591;28;20514;-61
2021/06/06 02:28:31;;;;;;;32.25;16.15;;;;;;;;;;5009178;28;20050;-61
2021/06/06 02:31:13;;;;;;;30.02;16.33;;;;;;;;;;5016267;28;20081;-61
2021/06/06 02:33:47;;;;;;;26.75;16.00;;;;;;;;;;5001890;28;20044;-61
2021/06/06 02:36:27;;;;;;;25.65;15.63;;;;;;;;;;5011925;28;20042;-61
2021/06/06 02:39:15;;;;;;;33.55;17.65;;;;;;;;;;5010382;28;20053;-61
2021/06/06 02:41:51;;;;;;;28.50;15.32;;;;;;;;;;5009815;28;20043;-61
2021/06/06 02:44:23;;;;;;;27.60;14.68;;;;;;;;;;5013932;28;20045;-61
2021/06/06 02:46:58;;;;;;;27.95;16.13;;;;;;;;;;5009234;28;20074;-61
2021/06/06 02:49:30;;;;;;;25.67;17.65;;;;;;;;;;5006229;28;20057;-61
2021/06/06 02:52:01;;;;;;;35.13;17.52;;;;;;;;;;5008172;28;20057;-61
2021/06/06 02:54:36;;;;;;;27.75;16.50;;;;;;;;;;5014359;28;20065;-61
2021/06/06 02:57:12;;;;;;;26.85;17.45;;;;;;;;;;5011477;28;20046;-61
2021/06/06 02:59:51;;;;;;;28.67;16.35;;;;;;;;;;5010887;28;20546;-61
2021/06/06 03:02:24;;;;;;;27.67;16.90;;;;;;;;;;5008839;28;20050;-61
2021/06/06 03:04:56;;;;;;;30.88;18.20;;;;;;;;;;5011132;28;20053;-61
2021/06/06 03:07:29;;;;;;;29.35;17.60;;;;;;;;;;5009199;28;20038;-61
2021/06/06 03:09:57;;;;;;;28.08;18.30;;;;;;;;;;5011170;28;20044;-61
2021/06/06 03:12:25;;;;;;;30.30;17.45;;;;;;;;;;5007268;28;20073;-61
2021/06/06 03:14:54;;;;;;;30.55;16.85;;;;;;;;;;4995408;28;20046;-60
2021/06/06 03:17:27;;;;;;;28.52;17.67;;;;;;;;;;5012972;28;20058;-61
2021/06/06 03:19:56;;;;;;;30.25;17.25;;;;;;;;;;5021627;28;20046;-61
2021/06/06 03:22:28;;;;;;;34.25;18.05;;;;;;;;;;5008989;28;20054;-61
2021/06/06 03:24:56;;;;;;;25.45;16.67;;;;;;;;;;5006354;28;20165;-61
2021/06/06 03:27:25;;;;;;;31.00;18.85;;;;;;;;;;5009542;28;20061;-61
2021/06/06 03:29:55;;;;;;;30.27;18.13;;;;;;;;;;4993690;28;20450;-61
2021/06/06 03:32:25;;;;;;;32.58;20.17;;;;;;;;;;5012358;28;20070;-61
2021/06/06 03:34:52;;;;;;;31.52;17.83;;;;;;;;;;5005775;28;20088;-61
2021/06/06 03:37:19;;;;;;;33.08;18.23;;;;;;;;;;5004458;28;20046;-61
2021/06/06 03:39:59;;;;;;;28.92;17.65;;;;;;;;;;5006396;28;20384;-61
2021/06/06 03:42:38;;;;;;;31.30;17.95;;;;;;;;;;5006716;28;20133;-61
2021/06/06 03:45:09;;;;;;;27.55;16.42;;;;;;;;;;5009307;28;20035;-60
2021/06/06 03:47:36;;;;;;;30.63;16.80;;;;;;;;;;5008212;28;20125;-61
2021/06/06 03:50:04;;;;;;;29.63;16.67;;;;;;;;;;5008491;28;20050;-61
2021/06/06 03:52:36;;;;;;;28.67;16.48;;;;;;;;;;5007881;28;20054;-61
2021/06/06 03:55:10;;;;;;;29.27;17.83;;;;;;;;;;5006501;28;20084;-61
2021/06/06 03:57:37;;;;;;;29.38;17.80;;;;;;;;;;5006512;28;20105;-61
2021/06/06 04:00:14;;;;;;;25.20;16.67;;;;;;;;;;4994802;28;20129;-61
2021/06/06 04:02:42;;;;;;;27.90;17.08;;;;;;;;;;5010722;28;20116;-60
2021/06/06 04:05:14;;;;;;;33.13;16.95;;;;;;;;;;5008288;28;20101;-61
2021/06/06 04:07:42;;;;;;;27.63;17.30;;;;;;;;;;5013198;28;20061;-61
2021/06/06 04:10:09;;;;;;;28.92;17.20;;;;;;;;;;5013246;28;20412;-61
2021/06/06 04:12:36;;;;;;;28.13;16.85;;;;;;;;;;5013934;28;20045;-61
2021/06/06 04:15:04;;;;;;;26.30;17.75;;;;;;;;;;5014673;28;20048;-61
2021/06/06 04:17:30;;;;;;;27.80;16.83;;;;;;;;;;5015288;28;20184;-61
2021/06/06 04:19:57;;;;;;;26.27;17.33;;;;;;;;;;5014926;28;20590;-61
2021/06/06 04:22:24;;;;;;;29.08;17.00;;;;;;;;;;5014021;28;20404;-61
2021/06/06 04:24:51;;;;;;;26.05;17.25;;;;;;;;;;5014075;28;20076;-61
2021/06/06 04:27:20;;;;;;;31.17;16.83;;;;;;;;;;5014694;28;20042;-61
2021/06/06 04:29:47;;;;;;;25.67;15.80;;;;;;;;;;5013645;28;20070;-61
2021/06/06 04:32:16;;;;;;;24.70;14.45;;;;;;;;;;5011398;28;20054;-61
2021/06/06 04:34:45;;;;;;;19.10;12.65;;;;;;;;;;5013743;28;20061;-61
2021/06/06 04:37:13;;;;;;;13.73;8.32;;;;;;;;;;5012321;28;20081;-61
2021/06/06 04:39:40;;;;;;;14.10;8.90;;;;;;;;;;5014191;28;20052;-61
2021/06/06 04:42:09;;;;;;;13.43;9.13;;;;;;;;;;5014201;28;20428;-61
2021/06/06 04:44:39;;;;;;;15.02;9.73;;;;;;;;;;5013805;28;20061;-61
2021/06/06 04:47:08;;;;;;;11.65;8.38;;;;;;;;;;5014899;28;20496;-61
2021/06/06 04:49:38;;;;;;;11.50;7.55;;;;;;;;;;5013878;28;20508;-61
2021/06/06 04:52:05;;;;;;;12.57;8.40;;;;;;;;;;5007691;28;20065;-61
2021/06/06 04:54:40;;;;;;;14.65;8.15;;;;;;;;;;5002054;28;20057;-61
2021/06/06 04:57:07;;;;;;;12.75;8.60;;;;;;;;;;5012356;28;20058;-61
2021/06/06 04:59:36;;;;;;;14.77;8.68;;;;;;;;;;5011130;28;20051;-61
2021/06/06 05:02:05;;;;;;;13.05;8.35;;;;;;;;;;5013745;28;20069;-61
2021/06/06 05:04:32;;;;;;;19.23;8.20;;;;;;;;;;5012049;28;20050;-61
2021/06/06 05:06:59;;;;;;;11.75;8.00;;;;;;;;;;5010669;28;20511;-62
2021/06/06 05:09:27;;;;;;;11.55;8.02;;;;;;;;;;5013734;28;20488;-61
2021/06/06 05:12:03;;;;;;;12.98;7.65;;;;;;;;;;5013757;28;20377;-61
2021/06/06 05:14:31;;;;;;;16.08;8.13;;;;;;;;;;5013059;28;20057;-61
2021/06/06 05:16:58;;;;;;;11.70;7.15;;;;;;;;;;5008262;28;20500;-61
2021/06/06 05:19:29;;;;;;;15.52;7.85;;;;;;;;;;5004176;28;20050;-61
2021/06/06 05:21:57;;;;;;;13.35;8.30;;;;;;;;;;5003345;28;20053;-61
2021/06/06 05:24:24;;;;;;;12.93;7.60;;;;;;;;;;5013042;28;20050;-61
2021/06/06 05:26:50;;;;;;;13.05;7.78;;;;;;;;;;4995522;28;20045;-61
2021/06/06 05:29:18;;;;;;;10.35;7.10;;;;;;;;;;5010809;28;20050;-61
2021/06/06 05:31:44;;;;;;;14.15;8.00;;;;;;;;;;5011849;28;20137;-61
2021/06/06 05:34:10;;;;;;;16.25;7.80;;;;;;;;;;5008793;28;20125;-62
2021/06/06 05:36:37;;;;;;;11.55;7.38;;;;;;;;;;5011510;28;20049;-61
2021/06/06 05:39:06;;;;;;;9.43;6.15;;;;;;;;;;5011573;28;20400;-62
2021/06/06 05:41:33;;;;;;;10.70;7.13;;;;;;;;;;5013758;28;20078;-61
2021/06/06 05:43:59;;;;;;;10.02;7.40;;;;;;;;;;5012676;28;20062;-61
2021/06/06 05:46:25;;;;;;;12.60;7.50;;;;;;;;;;5011339;28;20053;-61
2021/06/06 05:48:52;;;;;;;10.02;6.50;;;;;;;;;;5011216;28;20046;-61
2021/06/06 05:51:19;;;;;;;9.43;6.72;;;;;;;;;;5009438;28;20069;-61
2021/06/06 05:53:55;;;;;;;14.27;7.13;;;;;;;;;;5012030;28;20122;-62
2021/06/06 05:56:22;;;;;;;9.18;6.28;;;;;;;;;;5014874;28;20053;-62
2021/06/06 05:58:49;;;;;;;9.23;6.95;;;;;;;;;;5013118;28;20057;-62
2021/06/06 06:01:18;;;;;;;12.35;7.10;;;;;;;;;;5008186;28;20046;-61
2021/06/06 06:03:45;;;;;;;9.52;6.72;;;;;;;;;;5011190;28;20506;-61
2021/06/06 06:06:11;;;;;;;10.32;7.22;;;;;;;;;;5012376;28;20045;-62
2021/06/06 06:08:39;;;;;;;14.02;7.20;;;;;;;;;;5011322;28;20519;-61
2021/06/06 06:11:10;;;;;;;8.90;6.35;;;;;;;;;;5009314;28;20416;-61
2021/06/06 06:13:37;;;;;;;14.45;7.68;;;;;;;;;;5011849;28;20081;-62
2021/06/06 06:16:05;;;;;;;9.98;7.22;;;;;;;;;;5011912;28;20046;-62
2021/06/06 06:18:31;;;;;;;13.13;7.15;;;;;;;;;;5011717;28;20070;-62
2021/06/06 06:20:58;;;;;;;12.82;6.88;;;;;;;;;;5010275;28;20053;-61
2021/06/06 06:23:24;;;;;;;9.43;7.43;;;;;;;;;;5013908;28;20100;-61
2021/06/06 06:25:51;;;;;;;14.57;7.28;;;;;;;;;;5009900;28;20504;-61
2021/06/06 06:28:17;;;;;;;9.68;6.57;;;;;;;;;;5009872;28;20068;-61
2021/06/06 06:31:10;;;;;;;8.68;5.90;;;;;;;;;;5009922;28;20635;-61
2021/06/06 06:33:51;;;;;;;8.43;5.72;;;;;;;;;;5011452;28;20045;-61
2021/06/06 06:36:18;;;;;;;8.38;5.90;;;;;;;;;;5010648;28;20056;-61
2021/06/06 06:38:46;;;;;;;13.68;6.40;;;;;;;;;;5011775;28;20050;-62
2021/06/06 06:41:12;;;;;;;9.65;6.05;;;;;;;;;;5013063;28;20120;-61
2021/06/06 06:43:39;;;;;;;10.00;6.50;;;;;;;;;;5011126;28;20404;-62
2021/06/06 06:46:05;;;;;;;8.82;5.80;;;;;;;;;;5010084;28;20073;-61
2021/06/06 06:48:31;;;;;;;11.02;5.30;;;;;;;;;;5010368;28;20554;-61
2021/06/06 06:50:59;;;;;;;8.88;5.63;;;;;;;;;;5010374;28;20042;-62
2021/06/06 06:53:25;;;;;;;10.95;5.60;;;;;;;;;;5013300;28;20056;-62
2021/06/06 06:55:52;;;;;;;10.05;5.65;;;;;;;;;;5011011;28;20053;-62
2021/06/06 06:58:19;;;;;;;10.70;5.93;;;;;;;;;;5009724;28;20058;-62
2021/06/06 07:00:47;;;;;;;9.48;5.25;;;;;;;;;;5010075;28;20062;-62
2021/06/06 07:03:15;;;;;;;7.45;5.10;;;;;;;;;;5011511;28;20049;-62
2021/06/06 07:05:42;;;;;;;9.65;5.25;;;;;;;;;;5003226;28;20034;-62
2021/06/06 07:08:14;;;;;;;9.10;5.65;;;;;;;;;;5001351;28;20049;-62
2021/06/06 07:10:41;;;;;;;7.85;5.70;;;;;;;;;;5001799;28;20050;-62
2021/06/06 07:13:08;;;;;;;15.18;5.43;;;;;;;;;;5005110;28;20124;-62
2021/06/06 07:15:34;;;;;;;7.80;4.88;;;;;;;;;;5006049;28;20070;-62
2021/06/06 07:18:01;;;;;;;7.03;5.57;;;;;;;;;;4996055;28;20540;-62
2021/06/06 07:20:29;;;;;;;9.95;5.63;;;;;;;;;;5004555;28;20042;-62
2021/06/06 07:22:56;;;;;;;6.68;4.50;;;;;;;;;;5014850;28;20042;-62
2021/06/06 07:25:23;;;;;;;6.88;4.55;;;;;;;;;;5000961;28;20097;-62
2021/06/06 07:27:50;;;;;;;11.88;5.28;;;;;;;;;;4997060;28;20140;-62
2021/06/06 07:30:21;;;;;;;7.38;4.38;;;;;;;;;;5006243;28;20170;-62
2021/06/06 07:32:48;;;;;;;7.10;5.03;;;;;;;;;;5000985;28;20500;-62
2021/06/06 07:35:14;;;;;;;8.20;5.15;;;;;;;;;;5006042;28;20077;-61
2021/06/06 07:37:41;;;;;;;9.57;4.93;;;;;;;;;;5009763;28;20120;-62
2021/06/06 07:40:08;;;;;;;6.97;4.63;;;;;;;;;;5001627;28;20056;-62
2021/06/06 07:42:34;;;;;;;5.80;3.95;;;;;;;;;;5003087;28;20057;-62
2021/06/06 07:45:03;;;;;;;8.73;3.97;;;;;;;;;;5008737;28;20049;-62
2021/06/06 07:47:30;;;;;;;6.97;4.15;;;;;;;;;;5007658;28;20042;-62
2021/06/06 07:49:56;;;;;;;6.95;4.32;;;;;;;;;;5008993;28;20399;-62
2021/06/06 07:52:23;;;;;;;5.80;4.50;;;;;;;;;;5003813;28;20440;-62
2021/06/06 07:54:49;;;;;;;5.82;4.20;;;;;;;;;;5005358;28;20096;-62
2021/06/06 07:57:16;;;;;;;6.28;4.00;;;;;;;;;;4994466;28;20452;-62
2021/06/06 07:59:42;;;;;;;5.30;2.95;;;;;;;;;;5008166;28;20551;-61
2021/06/06 08:02:08;;;;;;;7.45;3.80;;;;;;;;;;5011138;28;20061;-62
2021/06/06 08:04:36;;;;;;;7.93;3.30;;;;;;;;;;5005800;28;20054;-61
2021/06/06 08:07:03;;;;;;;4.07;2.40;;;;;;;;;;5001662;28;20092;-62
2021/06/06 08:09:29;;;;;;;5.55;2.50;;;;;;;;;;4993297;28;20039;-62
2021/06/06 08:11:56;;;;;;;8.32;3.85;;;;;;;;;;5004474;28;20049;-62
2021/06/06 08:14:22;;;;;;;12.25;3.65;;;;;;;;;;5012633;28;20046;-62
2021/06/06 08:16:48;;;;;;;5.70;3.10;;;;;;;;;;5014554;28;20054;-63
2021/06/06 08:19:15;;;;;;;7.75;3.28;;;;;;;;;;4994445;28;20648;-62
2021/06/06 08:21:44;;;;;;;7.28;3.47;;;;;;;;;;4996736;28;20053;-60
2021/06/06 08:24:11;;;;;;;9.05;3.65;;;;;;;;;;4992154;28;20053;-60
2021/06/06 08:26:37;;;;;;;6.13;3.33;;;;;;;;;;4993925;28;20622;-60
2021/06/06 08:29:04;;;;;;;5.70;2.90;;;;;;;;;;4998294;28;20052;-60
2021/06/06 08:31:32;;;;;;;9.52;3.35;;;;;;;;;;5003673;28;20049;-62
2021/06/06 08:33:59;;;;;;;6.25;3.50;;;;;;;;;;5002551;28;20050;-60
2021/06/06 08:36:27;;;;;;;6.72;3.50;;;;;;;;;;4997720;28;20499;-61
2021/06/06 08:38:54;;;;;;;6.25;3.03;;;;;;;;;;5030615;28;20046;-60
2021/06/06 08:41:26;;;;;;;8.55;3.20;;;;;;;;;;5009575;28;20073;-62
2021/06/06 08:43:53;;;;;;;7.03;3.50;;;;;;;;;;5009301;28;20126;-61
2021/06/06 08:46:20;;;;;;;4.88;3.00;;;;;;;;;;5008692;28;20050;-62
2021/06/06 08:48:47;;;;;;;5.22;3.08;;;;;;;;;;5004841;28;20126;-62
2021/06/06 08:51:13;;;;;;;8.80;3.30;;;;;;;;;;5013421;28;20074;-62
2021/06/06 08:53:42;;;;;;;7.22;3.55;;;;;;;;;;5013568;28;20426;-62
2021/06/06 08:56:19;;;;;;;6.97;2.95;;;;;;;;;;5015933;28;20052;-62
2021/06/06 08:58:52;;;;;;;6.95;3.17;;;;;;;;;;5017305;28;20056;-62
2021/06/06 09:01:29;;;;;;;8.02;3.75;;;;;;;;;;5011405;28;20081;-62
2021/06/06 09:03:58;;;;;;;9.40;2.95;;;;;;;;;;5010267;28;20129;-62
2021/06/06 09:06:31;;;;;;;10.05;3.22;;;;;;;;;;5012236;28;20046;-61
2021/06/06 09:08:58;;;;;;;;;;;;;;;;;;5001731;28;20540;-63
2021/06/06 09:11:26;;;;;;;5.32;3.50;;;;;;;;;;5009429;28;19931;-62
2021/06/06 09:13:53;;;;;;;3.85;2.92;;;;;;;;;;5008200;28;20070;-62
2021/06/06 09:16:19;;;;;;;5.15;2.88;;;;;;;;;;5008755;28;20088;-62
2021/06/06 09:18:47;;;;;;;5.00;2.50;;;;;;;;;;5009733;28;20044;-62
2021/06/06 09:21:18;;;;;;;7.00;2.90;;;;;;;;;;5008743;28;20076;-62
2021/06/06 09:23:45;;;;;;;5.72;3.15;;;;;;;;;;5010529;28;20054;-62
2021/06/06 09:26:14;;;;;;;3.53;2.47;;;;;;;;;;5013653;28;20129;-62
2021/06/06 09:28:41;;;;;;;4.50;2.45;;;;;;;;;;5011138;28;20551;-62
2021/06/06 09:31:16;;;;;;;6.78;2.85;;;;;;;;;;5010425;28;20045;-62
2021/06/06 09:33:49;;;;;;;3.40;2.80;;;;;;;;;;5012151;28;20070;-62
2021/06/06 09:36:26;;;;;;;7.13;3.17;;;;;;;;;;5011212;28;20045;-62
2021/06/06 09:38:54;;;;;;;4.10;2.95;;;;;;;;;;4995983;28;20046;-62
2021/06/06 09:41:24;;;;;;;11.25;4.43;;;;;;;;;;5010475;28;20385;-62
2021/06/06 09:43:58;;;;;;;5.45;2.83;;;;;;;;;;5013078;28;20056;-62
2021/06/06 09:46:25;;;;;;;4.15;2.58;;;;;;;;;;5009299;28;20100;-62
2021/06/06 09:48:53;;;;;;;3.88;2.50;;;;;;;;;;5009125;28;20041;-63
2021/06/06 09:51:22;;;;;;;5.63;2.60;;;;;;;;;;5008441;28;20065;-62
2021/06/06 09:53:49;;;;;;;4.78;2.70;;;;;;;;;;5009536;28;20050;-63
2021/06/06 09:56:16;;;;;;;6.10;2.58;;;;;;;;;;5011902;28;20496;-63
2021/06/06 09:58:43;;;;;;;7.45;2.53;;;;;;;;;;5009419;28;20133;-63
2021/06/06 10:01:30;;;;;;;5.68;1.98;;;;;;;;;;5009871;28;20093;-63
2021/06/06 10:03:56;;;;;;;3.92;2.50;;;;;;;;;;5009983;28;20052;-63
2021/06/06 10:06:26;;;;;;;3.05;2.08;;;;;;;;;;5012251;28;20073;-62
2021/06/06 10:09:07;;;;;;;6.90;2.05;;;;;;;;;;4996098;28;20042;-62
2021/06/06 10:11:37;;;;;;;6.15;2.33;;;;;;;;;;5012631;28;20069;-62
2021/06/06 10:14:03;;;;;;;5.28;2.50;;;;;;;;;;5011682;28;20573;-62
2021/06/06 10:16:34;;;;;;;7.15;2.28;;;;;;;;;;5011471;28;20133;-62
2021/06/06 10:19:08;;;;;;;2.92;2.38;;;;;;;;;;5008683;28;20077;-62
2021/06/06 10:21:35;;;;;;;7.18;2.85;;;;;;;;;;5008636;28;20069;-63
2021/06/06 10:24:05;;;;;;;7.78;2.60;;;;;;;;;;5008149;28;20089;-63
2021/06/06 10:26:43;;;;;;;4.30;2.40;;;;;;;;;;5010166;28;20057;-63
2021/06/06 10:29:22;;;;;;;4.15;1.90;;;;;;;;;;5010789;28;20069;-63
2021/06/06 10:31:50;;;;;;;5.55;1.98;;;;;;;;;;5008900;28;20447;-62
2021/06/06 10:34:38;;;;;;;5.10;2.25;;;;;;;;;;5010014;28;20125;-63
2021/06/06 10:37:04;;;;;;;9.45;1.90;;;;;;;;;;4998648;28;20464;-62
2021/06/06 10:39:33;;;;;;;5.13;1.80;;;;;;;;;;5011692;28;20103;-63
2021/06/06 10:42:09;;;;;;;3.45;2.20;;;;;;;;;;5008584;28;20073;-63
2021/06/06 10:44:57;;;;;;;3.45;2.40;;;;;;;;;;5011920;28;20496;-63
2021/06/06 10:47:23;;;;;;;2.92;1.92;;;;;;;;;;5012054;28;20061;-63
2021/06/06 10:49:50;;;;;;;5.60;2.25;;;;;;;;;;5010412;28;20056;-63
2021/06/06 10:52:24;;;;;;;6.70;2.10;;;;;;;;;;5010766;28;20065;-63
2021/06/06 10:54:54;;;;;;;2.90;2.00;;;;;;;;;;5010641;28;20077;-63
2021/06/06 10:57:26;;;;;;;3.97;2.10;;;;;;;;;;5010796;28;20077;-63
2021/06/06 11:00:16;;;;;;;6.47;2.00;;;;;;;;;;5007438;28;20041;-63
2021/06/06 11:03:00;;;;;;;8.70;3.00;;;;;;;;;;5010171;28;20056;-63
2021/06/06 11:05:45;;;;;;;5.22;2.20;;;;;;;;;;5011861;28;20049;-63
2021/06/06 11:08:31;;;;;;;3.10;2.40;;;;;;;;;;5012565;28;20097;-62
2021/06/06 11:11:16;;;;;;;5.20;2.20;;;;;;;;;;5011301;28;20053;-62
2021/06/06 11:13:42;;;;;;;9.13;2.55;;;;;;;;;;5009805;28;20045;-62
2021/06/06 11:16:21;;;;;;;9.85;2.40;;;;;;;;;;5007558;28;20046;-62
2021/06/06 11:18:50;;;;;;;3.35;2.30;;;;;;;;;;5008426;28;20156;-63
2021/06/06 11:21:17;;;;;;;5.70;2.58;;;;;;;;;;5009234;28;20535;-63
2021/06/06 11:23:46;;;;;;;4.18;2.30;;;;;;;;;;5007452;28;20056;-63
2021/06/06 11:26:36;;;;;;;8.38;2.30;;;;;;;;;;5023407;28;20052;-63
2021/06/06 11:29:18;;;;;;;3.88;2.03;;;;;;;;;;5004876;28;20085;-63
2021/06/06 11:32:03;;;;;;;3.08;2.00;;;;;;;;;;5007589;28;20153;-63
2021/06/06 11:34:31;;;;;;;4.40;2.75;;;;;;;;;;5006154;28;20081;-63
2021/06/06 11:37:08;;;;;;;6.25;2.10;;;;;;;;;;5004858;28;20140;-64
2021/06/06 11:39:37;;;;;;;2.88;1.80;;;;;;;;;;4992363;28;20086;-63
2021/06/06 11:42:16;;;;;;;4.50;2.20;;;;;;;;;;5005480;28;20409;-63
2021/06/06 11:44:42;;;;;;;4.63;2.10;;;;;;;;;;5011687;28;20076;-62
2021/06/06 11:47:10;;;;;;;5.85;2.55;;;;;;;;;;5004559;28;20128;-63
2021/06/06 11:49:36;;;;;;;4.30;2.10;;;;;;;;;;5002533;28;20484;-62
2021/06/06 11:52:16;;;;;;;6.45;2.95;;;;;;;;;;5001650;28;20050;-63
2021/06/06 11:54:49;;;;;;;6.50;2.22;;;;;;;;;;5004656;28;20096;-63
2021/06/06 11:57:22;;;;;;;5.60;2.63;;;;;;;;;;4999467;28;70942;-63
2021/06/06 11:59:51;;;;;;;4.35;2.40;;;;;;;;;;4993245;28;20488;-62
2021/06/06 12:02:22;;;;;;;7.93;2.85;;;;;;;;;;5004936;28;20081;-63
2021/06/06 12:04:49;;;;;;;6.95;3.00;;;;;;;;;;5005529;28;20076;-64
2021/06/06 12:07:17;;;;;;;8.20;2.63;;;;;;;;;;5006665;28;20069;-64
2021/06/06 12:09:44;;;;;;;5.97;2.35;;;;;;;;;;5003751;28;20515;-64
2021/06/06 12:12:14;;;;;;;5.65;2.40;;;;;;;;;;5016297;28;20085;-64
2021/06/06 12:14:40;;;;;;;5.93;2.30;;;;;;;;;;5002609;28;20041;-63
2021/06/06 12:17:18;;;;;;;5.75;2.50;;;;;;;;;;5001578;28;20073;-65
2021/06/06 12:19:48;;;;;;;4.35;2.30;;;;;;;;;;4997178;28;20053;-65
2021/06/06 12:22:20;;;;;;;7.05;2.00;;;;;;;;;;5014810;28;20058;-64
2021/06/06 12:25:19;;;;;;;3.58;1.88;;;;;;;;;;5007858;28;20184;-65
2021/06/06 12:27:50;;;;;;;37.03;32.97;;;;;;;;;;4970276;28;20117;-65
2021/06/06 12:30:28;;;;;;;7.18;4.93;;;;;;;;;;4973117;28;20196;-65
2021/06/06 12:32:56;;;;;;;7.53;2.38;;;;;;;;;;4970879;28;20051;-64
2021/06/06 12:35:25;;;;;;;5.90;2.00;;;;;;;;;;4974226;28;20134;-64
2021/06/06 12:37:54;;;;;;;4.25;2.40;;;;;;;;;;4972556;28;20050;-64
2021/06/06 12:40:23;;;;;;;4.25;2.20;;;;;;;;;;4972791;28;20543;-65
2021/06/06 12:42:54;;;;;;;2.63;2.10;;;;;;;;;;4972682;28;20054;-63
2021/06/06 12:45:21;;;;;;;3.33;2.20;;;;;;;;;;4970496;28;20066;-64
2021/06/06 12:47:49;;;;;;;5.28;2.40;;;;;;;;;;4969627;28;20113;-64
2021/06/06 12:50:15;;;;;;;11.23;6.90;;;;;;;;;;4973026;28;20082;-64
2021/06/06 12:52:41;;;;;;;9.95;6.35;;;;;;;;;;4969374;28;20050;-65
2021/06/06 12:55:15;;;;;;;4.70;2.00;;;;;;;;;;4969882;28;20074;-65
2021/06/06 12:57:49;;;;;;;6.82;1.80;;;;;;;;;;4968619;28;20110;-64
2021/06/06 13:00:22;;;;;;;11.32;2.10;;;;;;;;;;4971533;28;20086;-63
2021/06/06 13:02:48;;;;;;;7.47;2.03;;;;;;;;;;4977642;28;20057;-64
2021/06/06 13:05:28;;;;;;;3.97;2.35;;;;;;;;;;5017055;28;20065;-64
2021/06/06 13:07:55;;;;;;;6.65;3.22;;;;;;;;;;5015199;28;20077;-64
2021/06/06 13:10:29;;;;;;;5.30;3.72;;;;;;;;;;5013512;28;20052;-64
2021/06/06 13:12:56;;;;;;;8.57;4.22;;;;;;;;;;5012550;28;20474;-64
2021/06/06 13:15:32;;;;;;;5.20;2.95;;;;;;;;;;5012126;28;20192;-64
2021/06/06 13:17:59;;;;;;;4.28;2.05;;;;;;;;;;5011891;28;20082;-64
2021/06/06 13:20:30;;;;;;;4.68;2.63;;;;;;;;;;5014516;28;20046;-64
2021/06/06 13:22:56;;;;;;;2.75;2.00;;;;;;;;;;5019139;28;20508;-64
2021/06/06 13:25:27;;;;;;;5.25;2.25;;;;;;;;;;5013662;28;20103;-64
2021/06/06 13:27:53;;;;;;;4.93;1.83;;;;;;;;;;5013668;28;20496;-64
2021/06/06 13:30:22;;;;;;;4.20;2.45;;;;;;;;;;5016476;28;20065;-64
2021/06/06 13:32:54;;;;;;;2.47;1.90;;;;;;;;;;5013935;28;20140;-64
2021/06/06 13:35:20;;;;;;;5.22;1.95;;;;;;;;;;5017855;28;20037;-65
2021/06/06 13:37:47;;;;;;;6.75;3.00;;;;;;;;;;5014827;28;20077;-64
2021/06/06 13:40:16;;;;;;;7.00;2.08;;;;;;;;;;5015699;28;20069;-64
2021/06/06 13:42:42;;;;;;;4.20;2.28;;;;;;;;;;5017064;28;20573;-64
2021/06/06 13:45:09;;;;;;;2.97;2.15;;;;;;;;;;5015883;28;20128;-64
2021/06/06 13:47:35;;;;;;;4.38;1.67;;;;;;;;;;5015245;28;20097;-63
2021/06/06 13:50:02;;;;;;;3.83;1.95;;;;;;;;;;5013139;28;20112;-64
2021/06/06 13:52:28;;;;;;;3.15;2.00;;;;;;;;;;5014141;28;20129;-64
2021/06/06 13:54:55;;;;;;;3.65;2.10;;;;;;;;;;5017361;28;20080;-64
2021/06/06 13:57:21;;;;;;;4.90;2.10;;;;;;;;;;5019468;28;20508;-64
2021/06/06 13:59:48;;;;;;;4.07;2.22;;;;;;;;;;5011400;28;20053;-63
2021/06/06 14:02:15;;;;;;;4.85;2.00;;;;;;;;;;5012536;28;20108;-64
2021/06/06 14:04:42;;;;;;;2.72;2.00;;;;;;;;;;5008967;28;20049;-64
2021/06/06 14:07:08;;;;;;;4.22;1.90;;;;;;;;;;5008962;28;20053;-63
2021/06/06 14:09:35;;;;;;;4.43;2.17;;;;;;;;;;5009147;28;20049;-63
2021/06/06 14:12:05;;;;;;;5.03;1.90;;;;;;;;;;5008810;28;20081;-63
2021/06/06 14:14:31;;;;;;;3.22;2.17;;;;;;;;;;5011172;28;20050;-63
2021/06/06 14:16:58;;;;;;;2.92;1.88;;;;;;;;;;5010092;28;20046;-63
2021/06/06 14:19:24;;;;;;;5.68;2.20;;;;;;;;;;5009246;28;20545;-63
2021/06/06 14:21:51;;;;;;;3.55;2.20;;;;;;;;;;5010706;28;20075;-63
2021/06/06 14:24:19;;;;;;;6.68;2.05;;;;;;;;;;5012570;28;20099;-64
2021/06/06 14:26:47;;;;;;;3.85;2.00;;;;;;;;;;5012148;28;20463;-63
2021/06/06 14:29:14;;;;;;;4.95;2.00;;;;;;;;;;5013467;28;20100;-63
2021/06/06 14:31:44;;;;;;;6.47;2.15;;;;;;;;;;5011177;28;20057;-63
2021/06/06 14:34:11;;;;;;;3.00;2.40;;;;;;;;;;5010807;28;20408;-63
2021/06/06 14:36:38;;;;;;;4.90;2.13;;;;;;;;;;5010357;28;20525;-62
2021/06/06 14:39:09;;;;;;;5.65;2.30;;;;;;;;;;5010647;28;20092;-63
2021/06/06 14:41:36;;;;;;;3.25;1.77;;;;;;;;;;5012868;28;20065;-63
2021/06/06 14:44:03;;;;;;;3.63;2.30;;;;;;;;;;5011743;28;20088;-62
2021/06/06 14:46:29;;;;;;;3.05;1.95;;;;;;;;;;5010107;28;20476;-62
2021/06/06 14:48:56;;;;;;;4.22;2.17;;;;;;;;;;5009711;28;20443;-63